Terminal Aerodrome Forecast
Issued by NWS

Home | Current Version | Previous Version | Graphics & Text | Print | Product List | Glossary On
Versions: 1 2 3 4 5 6 7 8 9 10 11 12 13 14 15 16
000
FTUS43 KBIS 132300
TAFMOT
TAF
KMOT 132338Z 1400/1424 29014KT P6SM VCSH BKN060
      TEMPO 1400/1402 6SM -SHRA BKN050
     FM140200 29009KT P6SM SCT030 BKN070
      TEMPO 1409/1412 BKN025
     FM141900 29007KT P6SM SCT080=

USA.gov is the U.S. government's official web portal to all federal, state and local government web resources and services.